Time;durP1;ratioP1;P1;durP2;ratioP2;P2;SDS_P1;SDS_P2;PMS_P1;PMS_P2;Temp;Humidity;BMP_temperature;BMP_pressure;BME280_temperature;BME280_humidity;BME280_pressure;Samples;Min_cycle;Max_cycle;Signal;HPM_P1;HPM_P2
2023/04/26 00:01:41;;;;;;;1.50;1.40;;;;;;;;;;5020958;28;20203;-85
2023/04/26 00:04:08;;;;;;;1.98;1.42;;;;;;;;;;5020544;28;20222;-85
2023/04/26 00:06:37;;;;;;;3.45;1.55;;;;;;;;;;5020537;28;20222;-85
2023/04/26 00:09:05;;;;;;;2.65;1.40;;;;;;;;;;5020549;28;20695;-85
2023/04/26 00:11:33;;;;;;;1.27;1.17;;;;;;;;;;5020427;28;20209;-85
2023/04/26 00:14:00;;;;;;;1.85;1.65;;;;;;;;;;5020379;28;20803;-85
2023/04/26 00:16:28;;;;;;;3.97;1.38;;;;;;;;;;5020570;28;20318;-85
2023/04/26 00:18:56;;;;;;;1.42;1.30;;;;;;;;;;5020178;28;20271;-85
2023/04/26 00:21:23;;;;;;;2.63;1.55;;;;;;;;;;5020615;28;20230;-85
2023/04/26 00:23:52;;;;;;;2.15;1.75;;;;;;;;;;5019764;28;20207;-85
2023/04/26 00:26:20;;;;;;;1.60;1.50;;;;;;;;;;5019985;28;20692;-85
2023/04/26 00:28:47;;;;;;;3.58;1.98;;;;;;;;;;5019828;28;20293;-85
2023/04/26 00:31:16;;;;;;;2.88;1.65;;;;;;;;;;5020302;28;20637;-85
2023/04/26 00:33:43;;;;;;;1.40;1.30;;;;;;;;;;5019498;28;20199;-85
2023/04/26 00:36:11;;;;;;;1.50;1.20;;;;;;;;;;5019185;28;20223;-85
2023/04/26 00:38:40;;;;;;;2.83;2.00;;;;;;;;;;5022162;28;20207;-85
2023/04/26 00:41:09;;;;;;;1.80;1.55;;;;;;;;;;5023433;28;20290;-85
2023/04/26 00:43:36;;;;;;;2.33;1.52;;;;;;;;;;5023284;28;20649;-85
2023/04/26 00:46:04;;;;;;;1.67;1.50;;;;;;;;;;5023117;28;20650;-85
2023/04/26 00:48:31;;;;;;;2.38;1.60;;;;;;;;;;5023207;28;20242;-85
2023/04/26 00:50:59;;;;;;;1.95;1.52;;;;;;;;;;5023276;28;20294;-85
2023/04/26 00:53:29;;;;;;;2.13;1.73;;;;;;;;;;5023310;28;20210;-85
2023/04/26 00:55:57;;;;;;;4.10;2.20;;;;;;;;;;5023132;28;20601;-85
2023/04/26 00:58:26;;;;;;;3.22;1.85;;;;;;;;;;5022938;28;20314;-85
2023/04/26 01:00:54;;;;;;;2.08;1.85;;;;;;;;;;5023055;28;20547;-85
2023/04/26 01:03:21;;;;;;;2.08;1.60;;;;;;;;;;5022353;28;20231;-85
2023/04/26 01:05:49;;;;;;;1.70;1.60;;;;;;;;;;5022934;28;20265;-86
2023/04/26 01:08:19;;;;;;;2.15;1.95;;;;;;;;;;5022464;28;20223;-85
2023/04/26 01:10:48;;;;;;;2.22;2.00;;;;;;;;;;5022677;28;20195;-85
2023/04/26 01:13:16;;;;;;;2.67;1.75;;;;;;;;;;5022632;28;20728;-85
2023/04/26 01:15:46;;;;;;;2.30;2.00;;;;;;;;;;5022424;28;20588;-85
2023/04/26 01:18:14;;;;;;;2.55;1.80;;;;;;;;;;5022963;28;20271;-85
2023/04/26 01:20:42;;;;;;;4.68;1.52;;;;;;;;;;5022935;28;20267;-85
2023/04/26 01:23:11;;;;;;;3.08;1.88;;;;;;;;;;5023068;28;20203;-85
2023/04/26 01:25:39;;;;;;;3.40;2.30;;;;;;;;;;5022912;28;20230;-85
2023/04/26 01:28:06;;;;;;;2.78;1.70;;;;;;;;;;5022253;28;20285;-85
2023/04/26 01:30:34;;;;;;;2.35;1.38;;;;;;;;;;5022672;28;20293;-84
2023/04/26 01:33:01;;;;;;;2.60;1.50;;;;;;;;;;5022723;28;20213;-85
2023/04/26 01:35:29;;;;;;;5.60;2.05;;;;;;;;;;5022718;28;20222;-85
2023/04/26 01:37:56;;;;;;;1.92;1.75;;;;;;;;;;5021727;28;20229;-84
2023/04/26 01:40:25;;;;;;;2.53;1.85;;;;;;;;;;5022573;28;20297;-85
2023/04/26 01:42:53;;;;;;;2.30;1.30;;;;;;;;;;5022720;28;20234;-85
2023/04/26 01:45:20;;;;;;;3.47;1.73;;;;;;;;;;5021830;28;20681;-84
2023/04/26 01:47:48;;;;;;;1.75;1.65;;;;;;;;;;5022085;28;20624;-85
2023/04/26 01:50:15;;;;;;;2.80;1.70;;;;;;;;;;5021416;28;20223;-85
2023/04/26 01:52:43;;;;;;;1.88;1.27;;;;;;;;;;5021293;28;20271;-85
2023/04/26 01:55:10;;;;;;;1.75;1.20;;;;;;;;;;5021659;28;20250;-85
2023/04/26 01:57:39;;;;;;;2.08;1.50;;;;;;;;;;5021653;28;20253;-85
2023/04/26 02:00:09;;;;;;;2.45;1.60;;;;;;;;;;5022198;28;20616;-85
2023/04/26 02:02:36;;;;;;;2.08;1.40;;;;;;;;;;5022810;28;20233;-85
2023/04/26 02:05:04;;;;;;;2.72;1.50;;;;;;;;;;5022208;28;20258;-86
2023/04/26 02:07:32;;;;;;;3.00;1.63;;;;;;;;;;5022227;28;20287;-85
2023/04/26 02:10:00;;;;;;;2.28;2.05;;;;;;;;;;5022579;28;20261;-85
2023/04/26 02:12:27;;;;;;;1.98;1.60;;;;;;;;;;5021670;28;20214;-85
2023/04/26 02:14:56;;;;;;;2.33;1.60;;;;;;;;;;5021758;28;20310;-85
2023/04/26 02:17:25;;;;;;;4.43;2.00;;;;;;;;;;5022101;28;20318;-85
2023/04/26 02:19:53;;;;;;;5.10;1.80;;;;;;;;;;5022296;28;20644;-85
2023/04/26 02:22:22;;;;;;;3.60;1.58;;;;;;;;;;5021321;28;20270;-85
2023/04/26 02:24:50;;;;;;;2.00;1.80;;;;;;;;;;5021843;28;20270;-85
2023/04/26 02:27:18;;;;;;;4.00;2.03;;;;;;;;;;5021961;28;20230;-85
2023/04/26 02:29:46;;;;;;;2.60;1.90;;;;;;;;;;5022099;28;20211;-85
2023/04/26 02:32:15;;;;;;;3.40;2.35;;;;;;;;;;5022012;28;20274;-85
2023/04/26 02:34:44;;;;;;;3.75;2.30;;;;;;;;;;5021427;28;20226;-85
2023/04/26 02:37:11;;;;;;;2.40;1.85;;;;;;;;;;5021322;28;20209;-85
2023/04/26 02:39:39;;;;;;;2.80;1.95;;;;;;;;;;5022129;28;20210;-85
2023/04/26 02:42:10;;;;;;;3.33;1.80;;;;;;;;;;5021637;28;20242;-85
2023/04/26 02:44:38;;;;;;;6.10;3.63;;;;;;;;;;5021267;28;20230;-85
2023/04/26 02:47:06;;;;;;;4.50;2.97;;;;;;;;;;5021055;28;20203;-85
2023/04/26 02:49:35;;;;;;;3.50;2.10;;;;;;;;;;5021929;28;20226;-85
2023/04/26 02:52:02;;;;;;;1.98;1.88;;;;;;;;;;5020834;28;20266;-85
2023/04/26 02:54:30;;;;;;;2.65;1.90;;;;;;;;;;5020354;28;20290;-85
2023/04/26 02:56:57;;;;;;;5.65;2.10;;;;;;;;;;5020206;28;20230;-85
2023/04/26 02:59:25;;;;;;;3.25;2.10;;;;;;;;;;5020021;28;20219;-85
2023/04/26 03:01:52;;;;;;;3.03;2.17;;;;;;;;;;5020476;28;20237;-85
2023/04/26 03:04:20;;;;;;;3.65;1.92;;;;;;;;;;5020223;28;20250;-85
2023/04/26 03:06:49;;;;;;;3.55;1.83;;;;;;;;;;5021326;28;20290;-85
2023/04/26 03:09:16;;;;;;;2.35;2.15;;;;;;;;;;5020918;28;20231;-85
2023/04/26 03:11:44;;;;;;;1.80;1.70;;;;;;;;;;5020479;28;20271;-85
2023/04/26 03:14:11;;;;;;;2.28;1.60;;;;;;;;;;5020775;28;20250;-85
2023/04/26 03:16:42;;;;;;;2.60;2.20;;;;;;;;;;5021593;28;20286;-85
2023/04/26 03:19:09;;;;;;;3.83;1.77;;;;;;;;;;5020698;28;20211;-85
2023/04/26 03:21:37;;;;;;;8.02;3.30;;;;;;;;;;5021118;28;20206;-85
2023/04/26 03:24:07;;;;;;;2.60;1.60;;;;;;;;;;5020621;28;20222;-85
2023/04/26 03:26:34;;;;;;;3.50;2.03;;;;;;;;;;5020990;28;20203;-85
2023/04/26 03:29:02;;;;;;;2.67;2.05;;;;;;;;;;5021216;28;20207;-85
2023/04/26 03:31:30;;;;;;;3.40;1.90;;;;;;;;;;5021164;28;20310;-85
2023/04/26 03:33:57;;;;;;;2.63;2.38;;;;;;;;;;5021542;28;20553;-84
2023/04/26 03:36:27;;;;;;;5.22;2.35;;;;;;;;;;5021011;28;20225;-85
2023/04/26 03:38:54;;;;;;;3.35;2.30;;;;;;;;;;5020950;28;20281;-85
2023/04/26 03:41:23;;;;;;;3.08;2.20;;;;;;;;;;5020826;28;20325;-85
2023/04/26 03:43:51;;;;;;;2.40;1.95;;;;;;;;;;5020486;28;20234;-84
2023/04/26 03:46:18;;;;;;;3.53;1.70;;;;;;;;;;5020745;28;20242;-85
2023/04/26 03:48:46;;;;;;;3.88;1.90;;;;;;;;;;5020949;28;20226;-85
2023/04/26 03:51:13;;;;;;;2.95;2.22;;;;;;;;;;5020904;28;20238;-85
2023/04/26 03:53:41;;;;;;;5.40;2.40;;;;;;;;;;5021291;28;20199;-85
2023/04/26 03:56:09;;;;;;;2.78;2.22;;;;;;;;;;5022022;28;20242;-85
2023/04/26 03:58:37;;;;;;;4.18;2.40;;;;;;;;;;5021036;28;20309;-85
2023/04/26 04:01:05;;;;;;;2.13;1.75;;;;;;;;;;5021341;28;20230;-85
2023/04/26 04:03:32;;;;;;;3.50;1.95;;;;;;;;;;5020459;28;20234;-85
2023/04/26 04:06:00;;;;;;;2.80;1.98;;;;;;;;;;5021055;28;20282;-85
2023/04/26 04:08:28;;;;;;;4.68;2.33;;;;;;;;;;5020892;28;20652;-85
2023/04/26 04:10:56;;;;;;;2.75;2.10;;;;;;;;;;5021016;28;20214;-85
2023/04/26 04:13:23;;;;;;;3.90;2.42;;;;;;;;;;5022630;28;20305;-85
2023/04/26 04:15:52;;;;;;;2.22;2.00;;;;;;;;;;5026476;28;20257;-85
2023/04/26 04:18:20;;;;;;;5.07;1.90;;;;;;;;;;5026696;28;20564;-85
2023/04/26 04:20:47;;;;;;;2.13;1.77;;;;;;;;;;5026997;28;20234;-85
2023/04/26 04:23:15;;;;;;;6.05;2.50;;;;;;;;;;5025924;28;20207;-85
2023/04/26 04:25:44;;;;;;;2.50;1.90;;;;;;;;;;5025576;28;20353;-86
2023/04/26 04:28:12;;;;;;;3.55;1.98;;;;;;;;;;5026384;28;20727;-85
2023/04/26 04:30:40;;;;;;;2.90;2.13;;;;;;;;;;5025835;28;20208;-85
2023/04/26 04:33:09;;;;;;;2.88;1.60;;;;;;;;;;5025781;28;20653;-85
2023/04/26 04:35:36;;;;;;;3.03;2.28;;;;;;;;;;5025741;28;20223;-85
2023/04/26 04:38:04;;;;;;;3.72;2.28;;;;;;;;;;5025774;28;20268;-85
2023/04/26 04:40:31;;;;;;;2.33;2.13;;;;;;;;;;5025967;28;20277;-85
2023/04/26 04:42:59;;;;;;;3.67;3.10;;;;;;;;;;5025163;28;20743;-85
2023/04/26 04:45:27;;;;;;;2.15;1.83;;;;;;;;;;5025727;28;20227;-85
2023/04/26 04:47:55;;;;;;;3.47;3.03;;;;;;;;;;5027273;28;20234;-85
2023/04/26 04:50:24;;;;;;;3.10;1.98;;;;;;;;;;5025751;28;20196;-85
2023/04/26 04:52:51;;;;;;;1.95;1.75;;;;;;;;;;5025342;28;20652;-85
2023/04/26 04:55:19;;;;;;;2.90;2.10;;;;;;;;;;5025939;28;20314;-85
2023/04/26 04:57:46;;;;;;;2.20;2.00;;;;;;;;;;5024953;28;20247;-84
2023/04/26 05:00:15;;;;;;;3.50;1.90;;;;;;;;;;5025456;28;20258;-85
2023/04/26 05:02:43;;;;;;;2.28;1.83;;;;;;;;;;5024898;28;20747;-85
2023/04/26 05:05:11;;;;;;;2.10;1.80;;;;;;;;;;5025489;28;20631;-85
2023/04/26 05:07:40;;;;;;;2.85;2.15;;;;;;;;;;5025226;28;20249;-85
2023/04/26 05:10:09;;;;;;;5.22;3.03;;;;;;;;;;5024691;28;20222;-85
2023/04/26 05:12:36;;;;;;;3.28;2.22;;;;;;;;;;5024424;28;20290;-85
2023/04/26 05:15:05;;;;;;;4.47;1.90;;;;;;;;;;5024342;28;20222;-86
2023/04/26 05:17:33;;;;;;;3.90;2.67;;;;;;;;;;5024535;28;20199;-85
2023/04/26 05:20:05;;;;;;;4.88;3.15;;;;;;;;;;5024321;28;20286;-85
2023/04/26 05:22:35;;;;;;;4.18;2.40;;;;;;;;;;5024313;28;20187;-85
2023/04/26 05:25:04;;;;;;;5.32;2.42;;;;;;;;;;5022700;28;20692;-86
2023/04/26 05:27:31;;;;;;;3.35;2.08;;;;;;;;;;5024421;28;20203;-85
2023/04/26 05:30:02;;;;;;;5.13;2.67;;;;;;;;;;5023721;28;20218;-86
2023/04/26 05:32:29;;;;;;;8.30;2.92;;;;;;;;;;5024738;28;20651;-86
2023/04/26 05:34:58;;;;;;;4.43;2.22;;;;;;;;;;5023473;28;20387;-86
2023/04/26 05:37:25;;;;;;;5.65;2.25;;;;;;;;;;5023225;28;20195;-86
2023/04/26 05:39:53;;;;;;;3.90;2.15;;;;;;;;;;5021364;28;20718;-86
2023/04/26 05:42:22;;;;;;;2.75;1.58;;;;;;;;;;5019772;28;20285;-86
2023/04/26 05:44:49;;;;;;;4.40;2.17;;;;;;;;;;5018102;28;20246;-86
2023/04/26 05:47:17;;;;;;;3.28;2.00;;;;;;;;;;5018141;28;20202;-86
2023/04/26 05:49:44;;;;;;;5.05;1.90;;;;;;;;;;5017526;28;20241;-86
2023/04/26 05:52:12;;;;;;;3.78;2.83;;;;;;;;;;5017666;28;20226;-87
2023/04/26 05:54:39;;;;;;;3.08;2.17;;;;;;;;;;5017222;28;20223;-86
2023/04/26 05:57:07;;;;;;;9.85;2.70;;;;;;;;;;5016916;28;20727;-86
2023/04/26 05:59:38;;;;;;;4.38;1.90;;;;;;;;;;5017091;28;20255;-86
2023/04/26 06:02:05;;;;;;;3.33;1.92;;;;;;;;;;5016834;28;20290;-87
2023/04/26 06:04:33;;;;;;;3.50;2.20;;;;;;;;;;5016616;28;20258;-86
2023/04/26 06:07:00;;;;;;;3.17;2.03;;;;;;;;;;5016650;28;20235;-85
2023/04/26 06:09:28;;;;;;;3.00;1.60;;;;;;;;;;5016476;28;20249;-86
2023/04/26 06:11:55;;;;;;;5.63;2.58;;;;;;;;;;5015168;28;20282;-86
2023/04/26 06:14:23;;;;;;;4.18;2.05;;;;;;;;;;5021595;28;20297;-87
2023/04/26 06:16:52;;;;;;;4.97;2.40;;;;;;;;;;5027661;28;20202;-86
2023/04/26 06:19:19;;;;;;;2.20;1.58;;;;;;;;;;5037482;28;20245;-87
2023/04/26 06:21:47;;;;;;;3.90;2.08;;;;;;;;;;5035252;28;20281;-87
2023/04/26 06:24:15;;;;;;;2.67;1.67;;;;;;;;;;5029485;28;20231;-86
2023/04/26 06:26:42;;;;;;;5.47;2.00;;;;;;;;;;5024814;28;20644;-86
2023/04/26 06:29:10;;;;;;;6.13;2.00;;;;;;;;;;5033591;28;20285;-86
2023/04/26 06:31:37;;;;;;;4.63;2.25;;;;;;;;;;5039018;28;20225;-87
2023/04/26 06:34:06;;;;;;;4.82;3.05;;;;;;;;;;5038959;28;20731;-86
2023/04/26 06:36:34;;;;;;;3.15;1.98;;;;;;;;;;5037504;28;20226;-87
2023/04/26 06:39:01;;;;;;;2.78;1.95;;;;;;;;;;5038796;28;20206;-86
2023/04/26 06:41:29;;;;;;;3.35;1.50;;;;;;;;;;5038624;28;20218;-87
2023/04/26 06:43:56;;;;;;;4.35;2.40;;;;;;;;;;5018118;28;20278;-87
2023/04/26 06:46:24;;;;;;;6.78;2.47;;;;;;;;;;5016159;28;20299;-86
2023/04/26 06:48:54;;;;;;;4.13;2.00;;;;;;;;;;5000468;28;20294;-86
2023/04/26 06:51:23;;;;;;;3.83;1.67;;;;;;;;;;5000650;28;20676;-86
2023/04/26 06:53:51;;;;;;;3.25;1.70;;;;;;;;;;4999912;28;20627;-86
2023/04/26 06:56:18;;;;;;;4.93;3.20;;;;;;;;;;5000210;28;20211;-87
2023/04/26 06:59:00;;;;;;;3.90;1.80;;;;;;;;;;4999019;28;20204;-87
2023/04/26 07:01:27;;;;;;;2.60;1.70;;;;;;;;;;4998743;28;20318;-87
2023/04/26 07:03:56;;;;;;;4.90;2.83;;;;;;;;;;4997935;28;20283;-86
2023/04/26 07:06:26;;;;;;;3.75;2.10;;;;;;;;;;4998001;28;20210;-86
2023/04/26 07:08:54;;;;;;;3.28;2.20;;;;;;;;;;4999698;28;20199;-86
2023/04/26 07:11:22;;;;;;;1.45;1.35;;;;;;;;;;4998948;28;20575;-85
2023/04/26 07:13:49;;;;;;;3.05;2.75;;;;;;;;;;5018172;28;20661;-86
2023/04/26 07:16:17;;;;;;;3.70;1.58;;;;;;;;;;5019327;28;20245;-85
2023/04/26 07:18:47;;;;;;;4.32;2.10;;;;;;;;;;5018781;28;20285;-86
2023/04/26 07:21:14;;;;;;;3.47;2.08;;;;;;;;;;5020112;28;20226;-86
2023/04/26 07:23:43;;;;;;;2.85;2.28;;;;;;;;;;5018211;28;20261;-86
2023/04/26 07:26:11;;;;;;;9.68;2.15;;;;;;;;;;5017497;28;20218;-86
2023/04/26 07:28:39;;;;;;;2.67;1.65;;;;;;;;;;5018501;28;20282;-86
2023/04/26 07:31:06;;;;;;;4.07;2.05;;;;;;;;;;5018673;28;20218;-85
2023/04/26 07:33:34;;;;;;;3.88;1.95;;;;;;;;;;5017017;28;20227;-85
2023/04/26 07:36:01;;;;;;;2.97;2.13;;;;;;;;;;5016800;28;20314;-86
2023/04/26 07:38:29;;;;;;;4.30;1.83;;;;;;;;;;5016295;28;20253;-87
2023/04/26 07:41:00;;;;;;;3.22;1.90;;;;;;;;;;5016851;28;20631;-87
2023/04/26 07:43:29;;;;;;;2.40;1.75;;;;;;;;;;5013995;28;20289;-86
2023/04/26 07:46:01;;;;;;;4.90;1.92;;;;;;;;;;5012940;28;20306;-86
2023/04/26 07:48:28;;;;;;;3.78;2.03;;;;;;;;;;5012308;28;20236;-86
2023/04/26 07:50:56;;;;;;;2.85;2.05;;;;;;;;;;5012993;28;20695;-85
2023/04/26 07:53:23;;;;;;;2.95;1.80;;;;;;;;;;5013187;28;20688;-85
2023/04/26 07:55:51;;;;;;;4.03;2.60;;;;;;;;;;5012545;28;20245;-86
2023/04/26 07:58:20;;;;;;;4.53;2.08;;;;;;;;;;5012679;28;20302;-86
2023/04/26 08:00:48;;;;;;;4.40;2.03;;;;;;;;;;5012943;28;20214;-87
2023/04/26 08:03:16;;;;;;;3.58;2.08;;;;;;;;;;5012459;28;20286;-85
2023/04/26 08:05:44;;;;;;;4.30;2.08;;;;;;;;;;5011898;28;20234;-85
2023/04/26 08:08:12;;;;;;;2.17;1.98;;;;;;;;;;5012835;28;20704;-86
2023/04/26 08:10:41;;;;;;;5.68;2.13;;;;;;;;;;5013153;28;20699;-86
2023/04/26 08:13:09;;;;;;;3.60;1.55;;;;;;;;;;5013444;28;20298;-86
2023/04/26 08:15:38;;;;;;;1.67;1.50;;;;;;;;;;5012666;28;20310;-85
2023/04/26 08:18:05;;;;;;;4.45;1.92;;;;;;;;;;5012476;28;20276;-86
2023/04/26 08:20:33;;;;;;;4.03;1.73;;;;;;;;;;5012991;28;20459;-86
2023/04/26 08:23:00;;;;;;;2.72;2.30;;;;;;;;;;5012560;28;20226;-86
2023/04/26 08:25:28;;;;;;;1.60;1.50;;;;;;;;;;5012754;28;20771;-85
2023/04/26 08:27:56;;;;;;;2.00;1.40;;;;;;;;;;5012834;28;20203;-88
2023/04/26 08:30:24;;;;;;;2.22;1.73;;;;;;;;;;5012676;28;20199;-87
2023/04/26 08:32:53;;;;;;;1.90;1.65;;;;;;;;;;5012843;28;20647;-88
2023/04/26 08:35:21;;;;;;;1.83;1.48;;;;;;;;;;5012697;28;20234;-86
2023/04/26 08:37:49;;;;;;;1.92;1.42;;;;;;;;;;5012206;28;20199;-87
2023/04/26 08:40:24;;;;;;;2.53;1.52;;;;;;;;;;5012377;28;20199;-85
2023/04/26 08:42:52;;;;;;;1.90;1.33;;;;;;;;;;5012608;28;20221;-85
2023/04/26 08:45:20;;;;;;;2.20;1.40;;;;;;;;;;5012819;28;20225;-85
2023/04/26 08:47:50;;;;;;;2.22;1.40;;;;;;;;;;5012002;28;20648;-85
2023/04/26 08:50:22;;;;;;;1.80;1.70;;;;;;;;;;5011664;28;20257;-84
2023/04/26 08:52:51;;;;;;;3.80;1.60;;;;;;;;;;5011698;28;20199;-85
2023/04/26 08:55:20;;;;;;;1.75;1.50;;;;;;;;;;5013059;28;20226;-85
2023/04/26 08:57:49;;;;;;;1.90;1.77;;;;;;;;;;5014283;28;20207;-85
2023/04/26 09:00:18;;;;;;;2.60;1.58;;;;;;;;;;5017218;28;20195;-85
2023/04/26 09:02:51;;;;;;;1.85;1.73;;;;;;;;;;5017366;28;20234;-84
2023/04/26 09:05:22;;;;;;;4.20;2.67;;;;;;;;;;5016899;28;20223;-85
2023/04/26 09:07:52;;;;;;;1.50;1.40;;;;;;;;;;5016373;28;20273;-85
2023/04/26 09:10:20;;;;;;;2.92;1.30;;;;;;;;;;5016657;28;20226;-85
2023/04/26 09:12:51;;;;;;;3.22;1.70;;;;;;;;;;5017548;28;20206;-86
2023/04/26 09:15:18;;;;;;;1.40;1.30;;;;;;;;;;5016958;28;20225;-85
2023/04/26 09:17:46;;;;;;;1.40;1.30;;;;;;;;;;5016286;28;20213;-85
2023/04/26 09:20:25;;;;;;;2.55;1.58;;;;;;;;;;5016394;28;20214;-85
2023/04/26 09:22:55;;;;;;;1.63;1.38;;;;;;;;;;5015378;28;20231;-85
2023/04/26 09:25:29;;;;;;;1.63;1.52;;;;;;;;;;5015581;28;20225;-85
2023/04/26 09:27:56;;;;;;;1.20;1.00;;;;;;;;;;5015107;28;20194;-86
2023/04/26 09:30:24;;;;;;;1.55;1.00;;;;;;;;;;5015699;28;20234;-85
2023/04/26 09:32:55;;;;;;;1.83;1.50;;;;;;;;;;5015237;28;20598;-86
2023/04/26 09:35:28;;;;;;;2.42;1.25;;;;;;;;;;5015160;28;20711;-86
2023/04/26 09:37:59;;;;;;;1.67;1.58;;;;;;;;;;5015409;28;20197;-86
2023/04/26 09:40:29;;;;;;;1.55;1.42;;;;;;;;;;5014917;28;20237;-87
2023/04/26 09:43:02;;;;;;;1.80;1.70;;;;;;;;;;5014770;28;20238;-86
2023/04/26 09:45:32;;;;;;;1.10;1.00;;;;;;;;;;5014665;28;20596;-86
2023/04/26 09:48:20;;;;;;;1.50;1.38;;;;;;;;;;5014991;28;20281;-85
2023/04/26 09:50:51;;;;;;;2.15;1.48;;;;;;;;;;5014692;28;20510;-86
2023/04/26 09:53:33;;;;;;;1.88;1.38;;;;;;;;;;5014481;28;20207;-86
2023/04/26 09:56:08;;;;;;;3.28;1.42;;;;;;;;;;5014493;28;20270;-85
2023/04/26 09:58:38;;;;;;;1.92;1.50;;;;;;;;;;5014332;28;20240;-85
2023/04/26 10:01:07;;;;;;;1.50;1.40;;;;;;;;;;5014616;28;20214;-86
2023/04/26 10:03:35;;;;;;;2.92;1.10;;;;;;;;;;5014442;28;20222;-86
2023/04/26 10:06:05;;;;;;;1.50;1.40;;;;;;;;;;5014561;28;20692;-86
2023/04/26 10:08:33;;;;;;;2.67;1.70;;;;;;;;;;5014370;28;20649;-86
2023/04/26 10:11:01;;;;;;;1.80;1.33;;;;;;;;;;5013831;28;20203;-86
2023/04/26 10:13:29;;;;;;;1.50;0.98;;;;;;;;;;5014566;28;20579;-85
2023/04/26 10:15:56;;;;;;;2.22;1.48;;;;;;;;;;5014323;28;20318;-86
2023/04/26 10:18:24;;;;;;;1.38;1.27;;;;;;;;;;5013691;28;20206;-85
2023/04/26 10:20:53;;;;;;;5.90;1.50;;;;;;;;;;5014276;28;20206;-85
2023/04/26 10:23:25;;;;;;;3.75;1.38;;;;;;;;;;5014865;28;20751;-85
2023/04/26 10:25:53;;;;;;;2.78;2.10;;;;;;;;;;5015014;28;20808;-85
2023/04/26 10:28:57;;;;;;;3.50;1.58;;;;;;;;;;5014145;28;20238;-85
2023/04/26 10:31:25;;;;;;;2.45;1.00;;;;;;;;;;5014714;28;20239;-85
2023/04/26 10:34:19;;;;;;;2.17;1.55;;;;;;;;;;5014125;28;20285;-85
2023/04/26 10:37:12;;;;;;;1.48;1.30;;;;;;;;;;5014944;28;20201;-85
2023/04/26 10:39:40;;;;;;;1.42;1.27;;;;;;;;;;5014311;28;20660;-85
2023/04/26 10:42:25;;;;;;;2.50;1.63;;;;;;;;;;5014304;28;20691;-85
2023/04/26 10:44:55;;;;;;;3.13;1.58;;;;;;;;;;5014299;28;20219;-85
2023/04/26 10:47:30;;;;;;;2.05;1.70;;;;;;;;;;5014985;28;20298;-85
2023/04/26 10:50:07;;;;;;;2.42;1.27;;;;;;;;;;5014527;28;20187;-85
2023/04/26 10:52:35;;;;;;;1.85;1.30;;;;;;;;;;5014549;28;20241;-84
2023/04/26 10:55:04;;;;;;;1.75;1.30;;;;;;;;;;5016037;28;20689;-85
2023/04/26 10:57:51;;;;;;;2.15;1.42;;;;;;;;;;5015904;28;20211;-84
2023/04/26 11:00:38;;;;;;;1.40;1.30;;;;;;;;;;5015472;28;20195;-85
2023/04/26 11:03:08;;;;;;;2.50;2.00;;;;;;;;;;5015029;28;20217;-85
2023/04/26 11:05:54;;;;;;;1.98;1.65;;;;;;;;;;5014567;28;20227;-86
2023/04/26 11:08:26;;;;;;;1.33;1.30;;;;;;;;;;5014497;28;20187;-84
2023/04/26 11:11:10;;;;;;;1.65;1.30;;;;;;;;;;5014789;28;20222;-87
2023/04/26 11:13:39;;;;;;;1.50;1.40;;;;;;;;;;5012171;28;20234;-85
2023/04/26 11:16:10;;;;;;;2.25;1.20;;;;;;;;;;5015338;28;20301;-86
2023/04/26 11:18:41;;;;;;;1.85;1.20;;;;;;;;;;5014666;28;20272;-86
2023/04/26 11:21:10;;;;;;;1.50;1.40;;;;;;;;;;5014645;28;20187;-86
2023/04/26 11:23:37;;;;;;;2.33;1.75;;;;;;;;;;5012914;28;20223;-86
2023/04/26 11:26:07;;;;;;;2.60;1.50;;;;;;;;;;5013818;28;20251;-87
2023/04/26 11:28:36;;;;;;;1.85;1.30;;;;;;;;;;5014862;28;20290;-85
2023/04/26 11:31:04;;;;;;;1.83;1.58;;;;;;;;;;5014803;28;20213;-86
2023/04/26 11:33:33;;;;;;;2.80;1.48;;;;;;;;;;5014444;28;20207;-85
2023/04/26 11:36:01;;;;;;;1.30;1.20;;;;;;;;;;5013228;28;20234;-86
2023/04/26 11:38:30;;;;;;;4.72;1.67;;;;;;;;;;5013364;28;20198;-86
2023/04/26 11:40:59;;;;;;;2.10;1.65;;;;;;;;;;5013241;28;20226;-85
2023/04/26 11:43:36;;;;;;;1.73;1.48;;;;;;;;;;5013270;28;20233;-86
2023/04/26 11:46:05;;;;;;;1.08;1.08;;;;;;;;;;5013467;28;20590;-85
2023/04/26 11:48:36;;;;;;;1.95;1.50;;;;;;;;;;5012929;28;20249;-86
2023/04/26 11:51:05;;;;;;;2.63;1.55;;;;;;;;;;5012984;28;20620;-86
2023/04/26 11:53:39;;;;;;;1.90;1.38;;;;;;;;;;5013805;28;20209;-85
2023/04/26 11:56:16;;;;;;;1.83;1.65;;;;;;;;;;5013468;28;20309;-86
2023/04/26 11:58:46;;;;;;;2.28;1.80;;;;;;;;;;5013318;28;20257;-85
2023/04/26 12:01:22;;;;;;;2.42;1.42;;;;;;;;;;5013374;28;20274;-85
2023/04/26 12:03:53;;;;;;;1.75;1.27;;;;;;;;;;5012923;28;20206;-85
2023/04/26 12:06:21;;;;;;;2.30;1.30;;;;;;;;;;5013376;28;20575;-85
2023/04/26 12:08:51;;;;;;;2.92;1.50;;;;;;;;;;5012719;28;20207;-85
2023/04/26 12:11:19;;;;;;;1.60;1.27;;;;;;;;;;5013012;28;20294;-85
2023/04/26 12:13:47;;;;;;;3.00;2.45;;;;;;;;;;5013389;28;20285;-85
2023/04/26 12:16:15;;;;;;;2.20;1.60;;;;;;;;;;5013458;28;20294;-85
2023/04/26 12:18:49;;;;;;;2.72;1.60;;;;;;;;;;5013138;28;20198;-86
2023/04/26 12:21:18;;;;;;;1.65;1.55;;;;;;;;;;5013730;28;20529;-86
2023/04/26 12:23:47;;;;;;;1.95;1.55;;;;;;;;;;5012853;28;20229;-84
2023/04/26 12:26:15;;;;;;;2.17;1.40;;;;;;;;;;5012702;28;20199;-86
2023/04/26 12:28:43;;;;;;;4.22;1.77;;;;;;;;;;5013373;28;20302;-85
2023/04/26 12:31:11;;;;;;;5.53;2.47;;;;;;;;;;5013119;28;20302;-85
2023/04/26 12:33:38;;;;;;;3.95;1.77;;;;;;;;;;5014165;28;20290;-86
2023/04/26 12:36:11;;;;;;;4.05;2.17;;;;;;;;;;5017024;28;20219;-84
2023/04/26 12:38:40;;;;;;;2.47;1.70;;;;;;;;;;5016701;28;20207;-85
2023/04/26 12:41:07;;;;;;;1.45;1.33;;;;;;;;;;5016444;28;20213;-85
2023/04/26 12:43:35;;;;;;;1.10;0.95;;;;;;;;;;5016640;28;20313;-85
2023/04/26 12:46:02;;;;;;;2.08;1.33;;;;;;;;;;5016293;28;20227;-86
2023/04/26 12:48:30;;;;;;;1.40;1.30;;;;;;;;;;5016015;28;20234;-85
2023/04/26 12:50:57;;;;;;;1.58;1.10;;;;;;;;;;5016079;28;20207;-87
2023/04/26 12:53:25;;;;;;;7.80;1.40;;;;;;;;;;5016356;28;20294;-85
2023/04/26 12:55:54;;;;;;;3.15;1.40;;;;;;;;;;5016466;28;20614;-85
2023/04/26 12:58:22;;;;;;;3.20;1.58;;;;;;;;;;5016076;28;20249;-85
2023/04/26 13:00:50;;;;;;;2.08;1.40;;;;;;;;;;5016378;28;20225;-86
2023/04/26 13:03:17;;;;;;;1.55;1.25;;;;;;;;;;5014493;28;20199;-86
2023/04/26 13:05:45;;;;;;;1.55;1.20;;;;;;;;;;5016924;28;20226;-85
2023/04/26 13:08:12;;;;;;;1.25;1.13;;;;;;;;;;5016515;28;20261;-85
2023/04/26 13:10:40;;;;;;;1.83;1.73;;;;;;;;;;5015975;28;20306;-85
2023/04/26 13:13:09;;;;;;;1.38;1.27;;;;;;;;;;5016375;28;20297;-85
2023/04/26 13:15:37;;;;;;;1.92;1.65;;;;;;;;;;5016146;28;20307;-86
2023/04/26 13:18:05;;;;;;;1.27;1.17;;;;;;;;;;5016022;28;20361;-85
2023/04/26 13:20:32;;;;;;;2.60;2.03;;;;;;;;;;5015819;28;20226;-84
2023/04/26 13:23:00;;;;;;;1.83;1.67;;;;;;;;;;5015874;28;20281;-86
2023/04/26 13:25:27;;;;;;;2.03;1.48;;;;;;;;;;5015173;28;20265;-86
2023/04/26 13:27:55;;;;;;;2.10;1.58;;;;;;;;;;5015391;28;20238;-85
2023/04/26 13:30:25;;;;;;;1.95;1.80;;;;;;;;;;5015523;28;20761;-86
2023/04/26 13:32:52;;;;;;;1.95;1.65;;;;;;;;;;5015796;28;20245;-86
2023/04/26 13:35:20;;;;;;;3.28;2.00;;;;;;;;;;5015911;28;20246;-86
2023/04/26 13:37:48;;;;;;;2.50;2.28;;;;;;;;;;5015593;28;20293;-86
2023/04/26 13:40:17;;;;;;;1.90;1.70;;;;;;;;;;5016102;28;20241;-86
2023/04/26 13:42:45;;;;;;;3.20;1.85;;;;;;;;;;5015732;28;20203;-86
2023/04/26 13:45:13;;;;;;;1.95;1.85;;;;;;;;;;5014325;28;20261;-86
2023/04/26 13:47:41;;;;;;;1.98;1.50;;;;;;;;;;5015547;28;20294;-85
2023/04/26 13:50:10;;;;;;;2.70;1.52;;;;;;;;;;5015606;28;20286;-86
2023/04/26 13:52:38;;;;;;;5.07;2.25;;;;;;;;;;5015626;28;20198;-86
2023/04/26 13:55:06;;;;;;;2.15;1.83;;;;;;;;;;5015427;28;20717;-85
2023/04/26 13:57:34;;;;;;;4.47;2.00;;;;;;;;;;5015456;28;20207;-85
2023/04/26 14:00:02;;;;;;;3.10;1.85;;;;;;;;;;5015472;28;20295;-86
2023/04/26 14:02:30;;;;;;;2.08;1.67;;;;;;;;;;5015663;28;20202;-86
2023/04/26 14:04:59;;;;;;;2.28;2.05;;;;;;;;;;5017216;28;20294;-87
2023/04/26 14:07:26;;;;;;;2.50;2.30;;;;;;;;;;5019650;28;20234;-86
2023/04/26 14:09:54;;;;;;;4.38;2.28;;;;;;;;;;5017485;28;20743;-86
2023/04/26 14:12:21;;;;;;;1.92;1.73;;;;;;;;;;5017928;28;20297;-85
2023/04/26 14:14:49;;;;;;;6.22;2.40;;;;;;;;;;5017213;28;20219;-85
2023/04/26 14:17:16;;;;;;;2.80;2.45;;;;;;;;;;5017431;28;20261;-85
2023/04/26 14:19:44;;;;;;;2.72;1.60;;;;;;;;;;5017367;28;20241;-85
2023/04/26 14:22:16;;;;;;;1.90;1.80;;;;;;;;;;5018392;28;20217;-84
2023/04/26 14:24:43;;;;;;;2.03;1.90;;;;;;;;;;5016852;28;20230;-84
2023/04/26 14:27:11;;;;;;;3.10;1.75;;;;;;;;;;5017453;28;20231;-84
2023/04/26 14:29:39;;;;;;;1.58;1.48;;;;;;;;;;5017990;28;20229;-84
2023/04/26 14:32:07;;;;;;;4.00;1.90;;;;;;;;;;5016792;28;20199;-84
2023/04/26 14:34:37;;;;;;;2.85;2.20;;;;;;;;;;5016805;28;20766;-84
2023/04/26 14:37:05;;;;;;;1.60;1.50;;;;;;;;;;5016948;28;20651;-84
2023/04/26 14:39:34;;;;;;;2.10;1.95;;;;;;;;;;5016708;28;20258;-84
2023/04/26 14:42:02;;;;;;;3.20;2.35;;;;;;;;;;5016597;28;20206;-84
2023/04/26 14:44:29;;;;;;;2.95;2.30;;;;;;;;;;5016847;28;20249;-84
2023/04/26 14:46:57;;;;;;;2.88;2.67;;;;;;;;;;5017181;28;20231;-84
2023/04/26 14:49:24;;;;;;;2.60;2.40;;;;;;;;;;5017060;28;20277;-84
2023/04/26 14:51:52;;;;;;;2.63;2.08;;;;;;;;;;5016916;28;20235;-85
2023/04/26 14:54:19;;;;;;;2.40;2.13;;;;;;;;;;5016908;28;20246;-84